sensor_id;sensor_type;location;lat;lon;timestamp;temperature;humidity
66328;DHT22;53133;52.862;6.602;2023-07-20T00:00:45;16.30;99.90
66328;DHT22;53133;52.862;6.602;2023-07-20T00:03:13;16.30;99.90
66328;DHT22;53133;52.862;6.602;2023-07-20T00:05:43;16.30;99.90
66328;DHT22;53133;52.862;6.602;2023-07-20T00:08:08;16.30;99.90
66328;DHT22;53133;52.862;6.602;2023-07-20T00:10:34;16.30;99.90
66328;DHT22;53133;52.862;6.602;2023-07-20T00:12:59;16.30;99.90
66328;DHT22;53133;52.862;6.602;2023-07-20T00:15:25;16.30;99.90
66328;DHT22;53133;52.862;6.602;2023-07-20T00:17:51;16.30;99.90
66328;DHT22;53133;52.862;6.602;2023-07-20T00:20:17;16.30;99.90
66328;DHT22;53133;52.862;6.602;2023-07-20T00:22:43;16.30;99.90
66328;DHT22;53133;52.862;6.602;2023-07-20T00:25:09;16.20;99.90
66328;DHT22;53133;52.862;6.602;2023-07-20T00:27:37;16.20;99.90
66328;DHT22;53133;52.862;6.602;2023-07-20T00:30:04;16.30;99.90
66328;DHT22;53133;52.862;6.602;2023-07-20T00:32:29;16.30;99.90
66328;DHT22;53133;52.862;6.602;2023-07-20T00:34:55;16.30;99.90
66328;DHT22;53133;52.862;6.602;2023-07-20T00:37:21;16.30;99.90
66328;DHT22;53133;52.862;6.602;2023-07-20T00:39:46;16.20;99.90
66328;DHT22;53133;52.862;6.602;2023-07-20T00:42:12;16.20;99.90
66328;DHT22;53133;52.862;6.602;2023-07-20T00:44:38;16.20;99.90
66328;DHT22;53133;52.862;6.602;2023-07-20T00:47:04;16.20;99.90
66328;DHT22;53133;52.862;6.602;2023-07-20T00:49:31;16.20;99.90
66328;DHT22;53133;52.862;6.602;2023-07-20T00:51:57;16.20;99.90
66328;DHT22;53133;52.862;6.602;2023-07-20T00:54:22;16.20;99.90
66328;DHT22;53133;52.862;6.602;2023-07-20T00:56:49;16.20;99.90
66328;DHT22;53133;52.862;6.602;2023-07-20T00:59:15;16.20;99.90
66328;DHT22;53133;52.862;6.602;2023-07-20T01:01:41;16.20;99.90
66328;DHT22;53133;52.862;6.602;2023-07-20T01:04:07;16.20;99.90
66328;DHT22;53133;52.862;6.602;2023-07-20T01:12:46;16.20;99.90
66328;DHT22;53133;52.862;6.602;2023-07-20T01:14:40;16.20;99.90
66328;DHT22;53133;52.862;6.602;2023-07-20T01:17:06;16.10;99.90
66328;DHT22;53133;52.862;6.602;2023-07-20T01:19:31;16.20;99.90
66328;DHT22;53133;52.862;6.602;2023-07-20T01:22:13;16.10;99.90
66328;DHT22;53133;52.862;6.602;2023-07-20T01:33:17;16.10;99.90
66328;DHT22;53133;52.862;6.602;2023-07-20T01:35:47;16.00;99.90
66328;DHT22;53133;52.862;6.602;2023-07-20T01:38:13;16.00;99.90
66328;DHT22;53133;52.862;6.602;2023-07-20T01:40:40;15.90;99.90
66328;DHT22;53133;52.862;6.602;2023-07-20T01:43:06;15.90;99.90
66328;DHT22;53133;52.862;6.602;2023-07-20T01:45:31;15.90;99.90
66328;DHT22;53133;52.862;6.602;2023-07-20T01:47:57;15.80;99.90
66328;DHT22;53133;52.862;6.602;2023-07-20T01:50:23;15.70;99.90
66328;DHT22;53133;52.862;6.602;2023-07-20T01:52:48;15.70;99.90
66328;DHT22;53133;52.862;6.602;2023-07-20T01:55:14;15.70;99.90
66328;DHT22;53133;52.862;6.602;2023-07-20T01:57:40;15.60;99.90
66328;DHT22;53133;52.862;6.602;2023-07-20T02:00:06;15.60;99.90
66328;DHT22;53133;52.862;6.602;2023-07-20T02:02:32;15.60;99.90
66328;DHT22;53133;52.862;6.602;2023-07-20T02:04:58;15.50;99.90
66328;DHT22;53133;52.862;6.602;2023-07-20T02:07:23;15.40;99.90
66328;DHT22;53133;52.862;6.602;2023-07-20T02:09:49;15.40;99.90
66328;DHT22;53133;52.862;6.602;2023-07-20T02:12:15;15.30;99.90
66328;DHT22;53133;52.862;6.602;2023-07-20T02:14:40;15.30;99.90
66328;DHT22;53133;52.862;6.602;2023-07-20T02:17:06;15.20;99.90
66328;DHT22;53133;52.862;6.602;2023-07-20T02:19:31;15.20;99.90
66328;DHT22;53133;52.862;6.602;2023-07-20T02:21:57;15.20;99.90
66328;DHT22;53133;52.862;6.602;2023-07-20T02:24:23;15.10;99.90
66328;DHT22;53133;52.862;6.602;2023-07-20T02:26:50;15.10;99.90
66328;DHT22;53133;52.862;6.602;2023-07-20T02:29:16;15.10;99.90
66328;DHT22;53133;52.862;6.602;2023-07-20T02:31:41;15.00;99.90
66328;DHT22;53133;52.862;6.602;2023-07-20T02:34:08;15.00;99.90
66328;DHT22;53133;52.862;6.602;2023-07-20T02:36:34;14.90;99.90
66328;DHT22;53133;52.862;6.602;2023-07-20T02:39:00;14.90;99.90
66328;DHT22;53133;52.862;6.602;2023-07-20T02:41:27;14.90;99.90
66328;DHT22;53133;52.862;6.602;2023-07-20T02:43:53;14.80;99.90
66328;DHT22;53133;52.862;6.602;2023-07-20T02:46:18;14.80;99.90
66328;DHT22;53133;52.862;6.602;2023-07-20T02:48:44;14.80;99.90
66328;DHT22;53133;52.862;6.602;2023-07-20T02:51:10;14.80;99.90
66328;DHT22;53133;52.862;6.602;2023-07-20T02:53:36;14.70;99.90
66328;DHT22;53133;52.862;6.602;2023-07-20T02:56:02;14.70;99.90
66328;DHT22;53133;52.862;6.602;2023-07-20T02:58:28;14.70;99.90
66328;DHT22;53133;52.862;6.602;2023-07-20T03:00:53;14.70;99.90
66328;DHT22;53133;52.862;6.602;2023-07-20T03:03:19;14.60;99.90
66328;DHT22;53133;52.862;6.602;2023-07-20T03:05:45;14.60;99.90
66328;DHT22;53133;52.862;6.602;2023-07-20T03:08:11;14.50;99.90
66328;DHT22;53133;52.862;6.602;2023-07-20T03:10:40;14.50;99.90
66328;DHT22;53133;52.862;6.602;2023-07-20T03:13:06;14.50;99.90
66328;DHT22;53133;52.862;6.602;2023-07-20T03:15:32;14.40;99.90
66328;DHT22;53133;52.862;6.602;2023-07-20T03:17:58;14.50;99.90
66328;DHT22;53133;52.862;6.602;2023-07-20T03:20:24;14.40;99.90
66328;DHT22;53133;52.862;6.602;2023-07-20T03:22:49;14.40;99.90
66328;DHT22;53133;52.862;6.602;2023-07-20T03:25:15;14.40;99.90
66328;DHT22;53133;52.862;6.602;2023-07-20T03:27:41;14.40;99.90
66328;DHT22;53133;52.862;6.602;2023-07-20T03:30:07;14.30;99.90
66328;DHT22;53133;52.862;6.602;2023-07-20T03:32:35;14.30;99.90
66328;DHT22;53133;52.862;6.602;2023-07-20T03:35:01;14.30;99.90
66328;DHT22;53133;52.862;6.602;2023-07-20T03:37:27;14.30;99.90
66328;DHT22;53133;52.862;6.602;2023-07-20T03:39:52;14.30;99.90
66328;DHT22;53133;52.862;6.602;2023-07-20T03:42:18;14.20;99.90
66328;DHT22;53133;52.862;6.602;2023-07-20T03:44:43;14.20;99.90
66328;DHT22;53133;52.862;6.602;2023-07-20T03:47:09;14.20;99.90
66328;DHT22;53133;52.862;6.602;2023-07-20T03:49:35;14.10;99.90
66328;DHT22;53133;52.862;6.602;2023-07-20T03:52:01;14.10;99.90
66328;DHT22;53133;52.862;6.602;2023-07-20T03:54:28;14.10;99.90
66328;DHT22;53133;52.862;6.602;2023-07-20T03:56:54;14.10;99.90
66328;DHT22;53133;52.862;6.602;2023-07-20T03:59:20;14.10;99.90
66328;DHT22;53133;52.862;6.602;2023-07-20T04:01:46;14.10;99.90
66328;DHT22;53133;52.862;6.602;2023-07-20T04:04:12;14.00;99.90
66328;DHT22;53133;52.862;6.602;2023-07-20T04:06:37;14.00;99.90
66328;DHT22;53133;52.862;6.602;2023-07-20T04:09:03;14.00;99.90
66328;DHT22;53133;52.862;6.602;2023-07-20T04:11:30;14.00;99.90
66328;DHT22;53133;52.862;6.602;2023-07-20T04:13:56;14.00;99.90
66328;DHT22;53133;52.862;6.602;2023-07-20T04:16:21;14.00;99.90
66328;DHT22;53133;52.862;6.602;2023-07-20T04:18:47;13.90;99.90
66328;DHT22;53133;52.862;6.602;2023-07-20T04:21:13;14.00;99.90
66328;DHT22;53133;52.862;6.602;2023-07-20T04:23:38;14.00;99.90
66328;DHT22;53133;52.862;6.602;2023-07-20T04:26:04;14.00;99.90
66328;DHT22;53133;52.862;6.602;2023-07-20T04:28:29;14.00;99.90
66328;DHT22;53133;52.862;6.602;2023-07-20T04:31:12;13.90;99.90
66328;DHT22;53133;52.862;6.602;2023-07-20T04:33:38;14.00;99.90
66328;DHT22;53133;52.862;6.602;2023-07-20T04:36:04;14.00;99.90
66328;DHT22;53133;52.862;6.602;2023-07-20T04:38:30;14.00;99.90
66328;DHT22;53133;52.862;6.602;2023-07-20T04:40:56;14.10;99.90
66328;DHT22;53133;52.862;6.602;2023-07-20T04:43:21;14.00;99.90
66328;DHT22;53133;52.862;6.602;2023-07-20T04:45:47;14.10;99.90
66328;DHT22;53133;52.862;6.602;2023-07-20T04:48:14;14.00;99.90
66328;DHT22;53133;52.862;6.602;2023-07-20T04:50:41;14.10;99.90
66328;DHT22;53133;52.862;6.602;2023-07-20T04:53:11;14.10;99.90
66328;DHT22;53133;52.862;6.602;2023-07-20T04:55:37;14.10;99.90
66328;DHT22;53133;52.862;6.602;2023-07-20T04:58:04;14.20;99.90
66328;DHT22;53133;52.862;6.602;2023-07-20T05:00:30;14.20;99.90
66328;DHT22;53133;52.862;6.602;2023-07-20T05:02:56;14.20;99.90
66328;DHT22;53133;52.862;6.602;2023-07-20T05:05:22;14.20;99.90
66328;DHT22;53133;52.862;6.602;2023-07-20T05:07:48;14.30;99.90
66328;DHT22;53133;52.862;6.602;2023-07-20T05:10:13;14.30;99.90
66328;DHT22;53133;52.862;6.602;2023-07-20T05:12:39;14.40;99.90
66328;DHT22;53133;52.862;6.602;2023-07-20T05:15:05;14.40;99.90
66328;DHT22;53133;52.862;6.602;2023-07-20T05:17:31;14.40;99.90
66328;DHT22;53133;52.862;6.602;2023-07-20T05:19:56;14.40;99.90
66328;DHT22;53133;52.862;6.602;2023-07-20T05:22:22;14.50;99.90
66328;DHT22;53133;52.862;6.602;2023-07-20T05:24:48;14.50;99.90
66328;DHT22;53133;52.862;6.602;2023-07-20T05:27:14;14.60;99.90
66328;DHT22;53133;52.862;6.602;2023-07-20T05:29:44;14.70;99.90
66328;DHT22;53133;52.862;6.602;2023-07-20T05:32:09;14.70;99.90
66328;DHT22;53133;52.862;6.602;2023-07-20T05:34:35;14.70;99.90
66328;DHT22;53133;52.862;6.602;2023-07-20T05:37:01;14.80;99.90
66328;DHT22;53133;52.862;6.602;2023-07-20T05:39:26;14.80;99.90
66328;DHT22;53133;52.862;6.602;2023-07-20T05:41:52;14.80;99.90
66328;DHT22;53133;52.862;6.602;2023-07-20T05:44:17;14.90;99.90
66328;DHT22;53133;52.862;6.602;2023-07-20T05:46:43;14.90;99.90
66328;DHT22;53133;52.862;6.602;2023-07-20T05:49:09;15.00;99.90
66328;DHT22;53133;52.862;6.602;2023-07-20T05:51:35;15.00;99.90
66328;DHT22;53133;52.862;6.602;2023-07-20T05:54:00;15.10;99.90
66328;DHT22;53133;52.862;6.602;2023-07-20T05:56:26;15.10;99.90
66328;DHT22;53133;52.862;6.602;2023-07-20T05:58:52;15.10;99.90
66328;DHT22;53133;52.862;6.602;2023-07-20T06:01:17;15.20;99.90
66328;DHT22;53133;52.862;6.602;2023-07-20T06:03:44;15.20;99.90
66328;DHT22;53133;52.862;6.602;2023-07-20T06:06:10;15.20;99.90
66328;DHT22;53133;52.862;6.602;2023-07-20T06:08:37;15.30;99.90
66328;DHT22;53133;52.862;6.602;2023-07-20T06:11:03;15.30;99.90
66328;DHT22;53133;52.862;6.602;2023-07-20T06:13:29;15.40;99.90
66328;DHT22;53133;52.862;6.602;2023-07-20T06:15:55;15.40;99.90
66328;DHT22;53133;52.862;6.602;2023-07-20T06:18:22;15.50;99.90
66328;DHT22;53133;52.862;6.602;2023-07-20T06:20:52;15.50;99.90
66328;DHT22;53133;52.862;6.602;2023-07-20T06:23:19;15.60;99.90
66328;DHT22;53133;52.862;6.602;2023-07-20T06:25:44;15.50;99.90
66328;DHT22;53133;52.862;6.602;2023-07-20T06:28:11;15.60;99.90
66328;DHT22;53133;52.862;6.602;2023-07-20T06:30:36;15.70;99.90
66328;DHT22;53133;52.862;6.602;2023-07-20T06:33:02;15.70;99.90
66328;DHT22;53133;52.862;6.602;2023-07-20T06:35:28;15.70;99.90
66328;DHT22;53133;52.862;6.602;2023-07-20T06:37:53;15.80;99.90
66328;DHT22;53133;52.862;6.602;2023-07-20T06:40:19;15.80;99.90
66328;DHT22;53133;52.862;6.602;2023-07-20T06:42:45;15.90;99.90
66328;DHT22;53133;52.862;6.602;2023-07-20T06:45:10;15.90;99.90
66328;DHT22;53133;52.862;6.602;2023-07-20T06:47:39;16.00;99.90
66328;DHT22;53133;52.862;6.602;2023-07-20T06:50:09;16.00;99.90
66328;DHT22;53133;52.862;6.602;2023-07-20T06:52:35;16.10;99.90
66328;DHT22;53133;52.862;6.602;2023-07-20T06:55:01;16.10;99.90
66328;DHT22;53133;52.862;6.602;2023-07-20T06:57:26;16.10;99.90
66328;DHT22;53133;52.862;6.602;2023-07-20T06:59:52;16.20;99.90
66328;DHT22;53133;52.862;6.602;2023-07-20T07:02:19;16.20;99.90
66328;DHT22;53133;52.862;6.602;2023-07-20T07:04:45;16.30;99.90
66328;DHT22;53133;52.862;6.602;2023-07-20T07:07:14;16.30;99.90
66328;DHT22;53133;52.862;6.602;2023-07-20T07:09:40;16.30;99.90
66328;DHT22;53133;52.862;6.602;2023-07-20T07:12:06;16.40;99.90
66328;DHT22;53133;52.862;6.602;2023-07-20T07:14:31;16.40;99.90
66328;DHT22;53133;52.862;6.602;2023-07-20T07:16:57;16.50;99.90
66328;DHT22;53133;52.862;6.602;2023-07-20T07:19:23;16.50;99.90
66328;DHT22;53133;52.862;6.602;2023-07-20T07:21:48;16.60;99.90
66328;DHT22;53133;52.862;6.602;2023-07-20T07:24:14;16.60;99.90
66328;DHT22;53133;52.862;6.602;2023-07-20T07:26:39;16.60;99.90
66328;DHT22;53133;52.862;6.602;2023-07-20T07:29:05;16.70;99.90
66328;DHT22;53133;52.862;6.602;2023-07-20T07:31:34;16.80;99.90
66328;DHT22;53133;52.862;6.602;2023-07-20T07:34:04;16.80;99.90
66328;DHT22;53133;52.862;6.602;2023-07-20T07:36:31;16.80;99.90
66328;DHT22;53133;52.862;6.602;2023-07-20T07:38:56;16.90;99.90
66328;DHT22;53133;52.862;6.602;2023-07-20T07:41:22;16.90;99.90
66328;DHT22;53133;52.862;6.602;2023-07-20T07:43:48;16.90;99.90
66328;DHT22;53133;52.862;6.602;2023-07-20T07:46:14;17.00;99.90
66328;DHT22;53133;52.862;6.602;2023-07-20T07:48:39;17.00;99.90
66328;DHT22;53133;52.862;6.602;2023-07-20T07:51:05;17.00;99.90
66328;DHT22;53133;52.862;6.602;2023-07-20T07:53:31;17.00;99.90
66328;DHT22;53133;52.862;6.602;2023-07-20T07:55:58;17.00;99.90
66328;DHT22;53133;52.862;6.602;2023-07-20T07:58:24;17.10;99.90
66328;DHT22;53133;52.862;6.602;2023-07-20T08:00:49;17.00;99.90
66328;DHT22;53133;52.862;6.602;2023-07-20T08:03:15;17.10;99.90
66328;DHT22;53133;52.862;6.602;2023-07-20T08:05:41;17.20;99.90
66328;DHT22;53133;52.862;6.602;2023-07-20T08:08:06;17.20;99.90
66328;DHT22;53133;52.862;6.602;2023-07-20T08:10:34;17.20;99.90
66328;DHT22;53133;52.862;6.602;2023-07-20T08:12:59;17.30;99.90
66328;DHT22;53133;52.862;6.602;2023-07-20T08:15:25;17.30;99.90
66328;DHT22;53133;52.862;6.602;2023-07-20T08:17:51;17.30;99.90
66328;DHT22;53133;52.862;6.602;2023-07-20T08:20:17;17.30;99.90
66328;DHT22;53133;52.862;6.602;2023-07-20T08:22:43;17.40;99.90
66328;DHT22;53133;52.862;6.602;2023-07-20T08:25:09;17.40;99.90
66328;DHT22;53133;52.862;6.602;2023-07-20T08:27:35;17.50;99.90
66328;DHT22;53133;52.862;6.602;2023-07-20T08:30:01;17.60;99.90
66328;DHT22;53133;52.862;6.602;2023-07-20T08:32:27;17.60;99.90
66328;DHT22;53133;52.862;6.602;2023-07-20T08:34:53;17.60;99.90
66328;DHT22;53133;52.862;6.602;2023-07-20T08:37:19;17.60;99.90
66328;DHT22;53133;52.862;6.602;2023-07-20T08:39:45;17.70;99.90
66328;DHT22;53133;52.862;6.602;2023-07-20T08:42:10;17.70;99.90
66328;DHT22;53133;52.862;6.602;2023-07-20T08:44:38;17.70;99.90
66328;DHT22;53133;52.862;6.602;2023-07-20T08:47:06;17.70;99.90
66328;DHT22;53133;52.862;6.602;2023-07-20T08:49:32;17.70;99.90
66328;DHT22;53133;52.862;6.602;2023-07-20T08:52:00;17.70;99.90
66328;DHT22;53133;52.862;6.602;2023-07-20T08:54:30;17.80;99.90
66328;DHT22;53133;52.862;6.602;2023-07-20T08:57:03;17.80;99.90
66328;DHT22;53133;52.862;6.602;2023-07-20T08:59:30;17.90;99.90
66328;DHT22;53133;52.862;6.602;2023-07-20T09:01:59;17.90;99.90
66328;DHT22;53133;52.862;6.602;2023-07-20T09:04:25;18.00;99.90
66328;DHT22;53133;52.862;6.602;2023-07-20T09:06:51;18.00;99.90
66328;DHT22;53133;52.862;6.602;2023-07-20T09:09:17;18.00;99.90
66328;DHT22;53133;52.862;6.602;2023-07-20T09:11:43;18.00;99.90
66328;DHT22;53133;52.862;6.602;2023-07-20T09:14:11;18.00;99.90
66328;DHT22;53133;52.862;6.602;2023-07-20T09:16:53;18.10;99.90
66328;DHT22;53133;52.862;6.602;2023-07-20T09:19:18;18.20;99.90
66328;DHT22;53133;52.862;6.602;2023-07-20T09:21:46;18.20;99.90
66328;DHT22;53133;52.862;6.602;2023-07-20T09:24:12;18.30;99.90
66328;DHT22;53133;52.862;6.602;2023-07-20T09:26:42;18.30;99.90
66328;DHT22;53133;52.862;6.602;2023-07-20T09:29:11;18.30;99.90
66328;DHT22;53133;52.862;6.602;2023-07-20T09:31:37;18.30;99.90
66328;DHT22;53133;52.862;6.602;2023-07-20T09:34:04;18.40;99.90
66328;DHT22;53133;52.862;6.602;2023-07-20T09:36:33;18.40;99.90
66328;DHT22;53133;52.862;6.602;2023-07-20T09:39:00;18.40;99.90
66328;DHT22;53133;52.862;6.602;2023-07-20T09:41:26;18.40;99.90
66328;DHT22;53133;52.862;6.602;2023-07-20T09:43:53;18.30;99.90
66328;DHT22;53133;52.862;6.602;2023-07-20T09:46:19;18.30;99.90
66328;DHT22;53133;52.862;6.602;2023-07-20T09:48:52;18.40;99.90
66328;DHT22;53133;52.862;6.602;2023-07-20T09:51:22;18.40;99.90
66328;DHT22;53133;52.862;6.602;2023-07-20T09:53:48;18.50;99.90
66328;DHT22;53133;52.862;6.602;2023-07-20T09:56:16;18.60;99.90
66328;DHT22;53133;52.862;6.602;2023-07-20T09:58:42;18.80;99.90
66328;DHT22;53133;52.862;6.602;2023-07-20T10:01:10;18.80;99.90
66328;DHT22;53133;52.862;6.602;2023-07-20T10:03:39;18.90;99.90
66328;DHT22;53133;52.862;6.602;2023-07-20T10:06:08;18.90;99.90
66328;DHT22;53133;52.862;6.602;2023-07-20T10:08:38;18.80;99.90
66328;DHT22;53133;52.862;6.602;2023-07-20T10:11:08;18.80;99.90
66328;DHT22;53133;52.862;6.602;2023-07-20T10:13:37;18.80;99.90
66328;DHT22;53133;52.862;6.602;2023-07-20T10:16:10;18.80;99.90
66328;DHT22;53133;52.862;6.602;2023-07-20T10:18:57;18.70;99.90
66328;DHT22;53133;52.862;6.602;2023-07-20T10:21:25;18.80;99.90
66328;DHT22;53133;52.862;6.602;2023-07-20T10:23:51;18.80;99.90
66328;DHT22;53133;52.862;6.602;2023-07-20T10:26:16;18.80;99.90
66328;DHT22;53133;52.862;6.602;2023-07-20T10:28:42;18.70;99.90
66328;DHT22;53133;52.862;6.602;2023-07-20T10:31:10;18.70;99.90
66328;DHT22;53133;52.862;6.602;2023-07-20T10:33:37;18.70;99.90
66328;DHT22;53133;52.862;6.602;2023-07-20T10:36:04;18.70;99.90
66328;DHT22;53133;52.862;6.602;2023-07-20T10:38:42;18.70;99.90
66328;DHT22;53133;52.862;6.602;2023-07-20T10:41:21;18.70;99.90
66328;DHT22;53133;52.862;6.602;2023-07-20T10:43:50;18.70;99.90
66328;DHT22;53133;52.862;6.602;2023-07-20T10:49:06;18.80;99.90
66328;DHT22;53133;52.862;6.602;2023-07-20T10:51:46;18.80;99.90
66328;DHT22;53133;52.862;6.602;2023-07-20T10:56:42;19.10;99.90
66328;DHT22;53133;52.862;6.602;2023-07-20T11:01:49;19.10;99.90
66328;DHT22;53133;52.862;6.602;2023-07-20T11:04:15;19.20;99.90
66328;DHT22;53133;52.862;6.602;2023-07-20T11:06:44;19.20;99.90
66328;DHT22;53133;52.862;6.602;2023-07-20T11:09:12;19.20;99.90
66328;DHT22;53133;52.862;6.602;2023-07-20T11:11:46;19.20;99.90
66328;DHT22;53133;52.862;6.602;2023-07-20T11:14:25;19.20;99.90
66328;DHT22;53133;52.862;6.602;2023-07-20T11:16:52;19.20;99.90
66328;DHT22;53133;52.862;6.602;2023-07-20T11:19:25;19.20;99.90
66328;DHT22;53133;52.862;6.602;2023-07-20T11:21:53;19.30;99.90
66328;DHT22;53133;52.862;6.602;2023-07-20T11:24:19;19.40;99.90
66328;DHT22;53133;52.862;6.602;2023-07-20T11:26:52;19.50;99.90
66328;DHT22;53133;52.862;6.602;2023-07-20T11:29:19;19.70;99.90
66328;DHT22;53133;52.862;6.602;2023-07-20T11:31:46;19.70;99.90
66328;DHT22;53133;52.862;6.602;2023-07-20T11:34:17;19.80;99.90
66328;DHT22;53133;52.862;6.602;2023-07-20T11:36:44;19.90;99.90
66328;DHT22;53133;52.862;6.602;2023-07-20T11:39:12;19.90;99.90
66328;DHT22;53133;52.862;6.602;2023-07-20T11:41:38;20.00;99.90
66328;DHT22;53133;52.862;6.602;2023-07-20T11:44:10;20.10;99.90
66328;DHT22;53133;52.862;6.602;2023-07-20T11:46:39;20.20;99.90
66328;DHT22;53133;52.862;6.602;2023-07-20T11:49:05;20.30;99.90
66328;DHT22;53133;52.862;6.602;2023-07-20T11:51:31;20.30;99.90
66328;DHT22;53133;52.862;6.602;2023-07-20T11:53:58;20.40;99.90
66328;DHT22;53133;52.862;6.602;2023-07-20T11:56:26;20.50;99.90
66328;DHT22;53133;52.862;6.602;2023-07-20T11:58:59;20.60;99.90
66328;DHT22;53133;52.862;6.602;2023-07-20T12:01:27;20.60;99.90
66328;DHT22;53133;52.862;6.602;2023-07-20T12:03:59;20.60;99.90
66328;DHT22;53133;52.862;6.602;2023-07-20T12:06:25;20.70;99.90
66328;DHT22;53133;52.862;6.602;2023-07-20T12:08:53;20.70;99.90
66328;DHT22;53133;52.862;6.602;2023-07-20T12:11:39;20.70;99.90
66328;DHT22;53133;52.862;6.602;2023-07-20T12:14:07;20.70;99.90
66328;DHT22;53133;52.862;6.602;2023-07-20T12:16:34;20.70;99.90
66328;DHT22;53133;52.862;6.602;2023-07-20T12:19:06;20.70;99.90
66328;DHT22;53133;52.862;6.602;2023-07-20T12:21:34;20.70;99.90
66328;DHT22;53133;52.862;6.602;2023-07-20T12:24:00;20.70;99.90
66328;DHT22;53133;52.862;6.602;2023-07-20T12:26:26;20.70;99.90
66328;DHT22;53133;52.862;6.602;2023-07-20T12:28:52;20.70;99.90
66328;DHT22;53133;52.862;6.602;2023-07-20T12:31:18;20.70;99.90
66328;DHT22;53133;52.862;6.602;2023-07-20T12:33:43;20.70;99.90
66328;DHT22;53133;52.862;6.602;2023-07-20T12:36:10;20.60;99.90
66328;DHT22;53133;52.862;6.602;2023-07-20T12:38:36;20.60;99.90
66328;DHT22;53133;52.862;6.602;2023-07-20T12:41:02;20.60;99.90
66328;DHT22;53133;52.862;6.602;2023-07-20T12:43:28;20.60;99.90
66328;DHT22;53133;52.862;6.602;2023-07-20T12:45:55;20.60;99.90
66328;DHT22;53133;52.862;6.602;2023-07-20T12:48:21;20.70;99.90
66328;DHT22;53133;52.862;6.602;2023-07-20T12:50:47;20.70;99.90
66328;DHT22;53133;52.862;6.602;2023-07-20T12:53:13;20.80;99.90
66328;DHT22;53133;52.862;6.602;2023-07-20T12:55:39;20.80;99.20
66328;DHT22;53133;52.862;6.602;2023-07-20T12:58:06;20.80;98.90
66328;DHT22;53133;52.862;6.602;2023-07-20T13:00:31;20.80;98.40
66328;DHT22;53133;52.862;6.602;2023-07-20T13:02:57;20.80;98.30
66328;DHT22;53133;52.862;6.602;2023-07-20T13:05:23;20.80;99.00
66328;DHT22;53133;52.862;6.602;2023-07-20T13:07:49;20.90;99.50
66328;DHT22;53133;52.862;6.602;2023-07-20T13:10:15;20.80;99.70
66328;DHT22;53133;52.862;6.602;2023-07-20T13:12:41;20.80;99.90
66328;DHT22;53133;52.862;6.602;2023-07-20T13:15:08;20.90;99.90
66328;DHT22;53133;52.862;6.602;2023-07-20T13:17:39;20.90;99.90
66328;DHT22;53133;52.862;6.602;2023-07-20T13:20:06;20.80;99.90
66328;DHT22;53133;52.862;6.602;2023-07-20T13:22:33;20.70;99.90
66328;DHT22;53133;52.862;6.602;2023-07-20T13:24:59;20.60;99.90
66328;DHT22;53133;52.862;6.602;2023-07-20T13:27:25;20.50;99.90
66328;DHT22;53133;52.862;6.602;2023-07-20T13:29:52;20.50;99.90
66328;DHT22;53133;52.862;6.602;2023-07-20T13:32:18;20.30;99.30
66328;DHT22;53133;52.862;6.602;2023-07-20T13:34:44;20.10;99.40
66328;DHT22;53133;52.862;6.602;2023-07-20T13:37:10;20.00;99.60
66328;DHT22;53133;52.862;6.602;2023-07-20T13:39:37;19.90;99.90
66328;DHT22;53133;52.862;6.602;2023-07-20T13:42:02;19.90;99.90
66328;DHT22;53133;52.862;6.602;2023-07-20T13:44:31;19.80;99.90
66328;DHT22;53133;52.862;6.602;2023-07-20T13:46:56;19.70;99.90
66328;DHT22;53133;52.862;6.602;2023-07-20T13:49:23;19.70;99.90
66328;DHT22;53133;52.862;6.602;2023-07-20T13:51:48;19.60;99.90
66328;DHT22;53133;52.862;6.602;2023-07-20T13:54:14;19.50;99.90
66328;DHT22;53133;52.862;6.602;2023-07-20T13:56:40;19.50;99.90
66328;DHT22;53133;52.862;6.602;2023-07-20T13:59:06;19.40;99.90
66328;DHT22;53133;52.862;6.602;2023-07-20T14:01:31;19.40;99.90
66328;DHT22;53133;52.862;6.602;2023-07-20T14:04:00;19.30;99.90
66328;DHT22;53133;52.862;6.602;2023-07-20T14:06:26;19.30;99.90
66328;DHT22;53133;52.862;6.602;2023-07-20T14:08:51;19.30;99.90
66328;DHT22;53133;52.862;6.602;2023-07-20T14:11:18;19.40;99.90
66328;DHT22;53133;52.862;6.602;2023-07-20T14:13:44;19.50;99.90
66328;DHT22;53133;52.862;6.602;2023-07-20T14:16:10;19.50;99.90
66328;DHT22;53133;52.862;6.602;2023-07-20T14:18:36;19.60;99.90
66328;DHT22;53133;52.862;6.602;2023-07-20T14:21:01;19.60;99.90
66328;DHT22;53133;52.862;6.602;2023-07-20T14:23:28;19.70;99.90
66328;DHT22;53133;52.862;6.602;2023-07-20T14:25:54;19.80;99.90
66328;DHT22;53133;52.862;6.602;2023-07-20T14:28:20;19.90;99.90
66328;DHT22;53133;52.862;6.602;2023-07-20T14:30:46;19.90;99.90
66328;DHT22;53133;52.862;6.602;2023-07-20T14:33:12;20.00;99.90
66328;DHT22;53133;52.862;6.602;2023-07-20T14:35:37;20.10;99.90
66328;DHT22;53133;52.862;6.602;2023-07-20T14:38:03;20.20;99.90
66328;DHT22;53133;52.862;6.602;2023-07-20T14:40:29;20.20;99.90
66328;DHT22;53133;52.862;6.602;2023-07-20T14:42:56;20.30;99.90
66328;DHT22;53133;52.862;6.602;2023-07-20T14:45:22;20.30;99.90
66328;DHT22;53133;52.862;6.602;2023-07-20T14:47:47;20.10;99.90
66328;DHT22;53133;52.862;6.602;2023-07-20T14:50:19;20.10;99.90
66328;DHT22;53133;52.862;6.602;2023-07-20T14:52:45;20.00;99.90
66328;DHT22;53133;52.862;6.602;2023-07-20T14:55:10;20.10;99.90
66328;DHT22;53133;52.862;6.602;2023-07-20T14:57:36;20.00;99.90
66328;DHT22;53133;52.862;6.602;2023-07-20T15:00:03;20.00;99.90
66328;DHT22;53133;52.862;6.602;2023-07-20T15:02:33;20.00;99.90
66328;DHT22;53133;52.862;6.602;2023-07-20T15:04:59;20.00;99.90
66328;DHT22;53133;52.862;6.602;2023-07-20T15:07:25;20.00;99.90
66328;DHT22;53133;52.862;6.602;2023-07-20T15:09:51;20.00;99.90
66328;DHT22;53133;52.862;6.602;2023-07-20T15:12:16;20.00;99.90
66328;DHT22;53133;52.862;6.602;2023-07-20T15:14:43;20.00;99.90
66328;DHT22;53133;52.862;6.602;2023-07-20T15:17:11;19.90;99.90
66328;DHT22;53133;52.862;6.602;2023-07-20T15:19:38;20.00;99.90
66328;DHT22;53133;52.862;6.602;2023-07-20T15:22:04;19.90;99.90
66328;DHT22;53133;52.862;6.602;2023-07-20T15:24:32;19.90;99.90
66328;DHT22;53133;52.862;6.602;2023-07-20T15:26:58;20.00;99.90
66328;DHT22;53133;52.862;6.602;2023-07-20T15:29:24;19.90;99.90
66328;DHT22;53133;52.862;6.602;2023-07-20T15:31:50;20.00;99.90
66328;DHT22;53133;52.862;6.602;2023-07-20T15:34:16;20.00;99.90
66328;DHT22;53133;52.862;6.602;2023-07-20T15:36:41;20.00;99.90
66328;DHT22;53133;52.862;6.602;2023-07-20T15:39:08;20.10;99.90
66328;DHT22;53133;52.862;6.602;2023-07-20T15:41:34;20.00;99.90
66328;DHT22;53133;52.862;6.602;2023-07-20T15:44:00;20.10;99.90
66328;DHT22;53133;52.862;6.602;2023-07-20T15:49:07;20.10;99.90
66328;DHT22;53133;52.862;6.602;2023-07-20T15:51:35;20.10;99.90